createdAt,value
2022-08-16T00:01:02.795Z,60.97
2022-08-16T00:03:32.314Z,60.17
2022-08-16T00:06:04.394Z,58.60
2022-08-16T00:08:36.844Z,58.62
2022-08-16T00:11:15.393Z,60.48
2022-08-16T00:13:43.622Z,59.77
2022-08-16T00:17:00.957Z,58.86
2022-08-16T00:19:07.835Z,58.04
2022-08-16T00:21:35.314Z,57.35
2022-08-16T00:24:04.853Z,57.09
2022-08-16T00:26:35.769Z,57.52
2022-08-16T00:29:11.902Z,58.03
2022-08-16T00:31:58.871Z,57.01
2022-08-16T00:34:43.168Z,57.83
2022-08-16T00:37:12.740Z,56.10
2022-08-16T00:39:44.667Z,56.47
2022-08-16T00:42:11.307Z,55.83
2022-08-16T00:44:39.441Z,55.75
2022-08-16T00:47:09.979Z,56.20
2022-08-16T00:49:44.623Z,56.04
2022-08-16T00:52:23.774Z,55.77
2022-08-16T00:54:56.430Z,55.98
2022-08-16T00:57:23.991Z,55.10
2022-08-16T00:59:54.586Z,55.63
2022-08-16T01:02:31.761Z,55.22
2022-08-16T01:05:09.584Z,55.46
2022-08-16T01:07:51.617Z,55.61
2022-08-16T01:10:20.804Z,56.08
2022-08-16T01:12:47.531Z,55.07
2022-08-16T01:15:15.193Z,56.02
2022-08-16T01:17:42.337Z,55.95
2022-08-16T01:20:23.741Z,55.06
2022-08-16T01:23:02.614Z,55.90
2022-08-16T01:25:34.581Z,56.23
2022-08-16T01:28:05.973Z,55.10
2022-08-16T01:30:39.842Z,56.02
2022-08-16T01:33:16.785Z,55.66
2022-08-16T01:35:52.490Z,56.17
2022-08-16T01:38:25.890Z,56.65
2022-08-16T01:41:01.817Z,55.02
2022-08-16T01:43:31.078Z,54.92
2022-08-16T01:46:00.508Z,55.21
2022-08-16T01:48:47.439Z,54.78
2022-08-16T01:51:17.363Z,54.72
2022-08-16T01:53:44.840Z,53.39
2022-08-16T01:56:28.938Z,53.20
2022-08-16T01:58:57.273Z,54.13
2022-08-16T02:01:25.913Z,53.85
2022-08-16T02:03:53.222Z,53.96
2022-08-16T02:06:34.209Z,54.66
2022-08-16T02:09:05.226Z,53.92
2022-08-16T02:11:48.572Z,54.35
2022-08-16T02:14:21.573Z,53.97
2022-08-16T02:16:49.874Z,54.14
2022-08-16T02:19:18.397Z,51.80
2022-08-16T02:22:08.492Z,53.24
2022-08-16T02:24:41.230Z,52.98
2022-08-16T02:27:08.743Z,54.07
2022-08-16T02:29:35.339Z,53.60
2022-08-16T02:32:03.881Z,53.28
2022-08-16T02:34:50.307Z,54.06
2022-08-16T02:37:20.879Z,54.25
2022-08-16T02:39:54.183Z,55.03
2022-08-16T02:42:21.371Z,54.84
2022-08-16T02:44:48.867Z,55.22
2022-08-16T02:47:25.082Z,55.89
2022-08-16T02:50:25.844Z,57.29
2022-08-16T02:52:39.664Z,56.89
2022-08-16T02:55:11.363Z,56.21
2022-08-16T02:57:42.509Z,57.11
2022-08-16T03:00:33.648Z,57.87
2022-08-16T03:03:01.653Z,57.69
2022-08-16T03:05:31.648Z,57.08
2022-08-16T03:08:00.115Z,57.06
2022-08-16T03:10:33.730Z,58.00
2022-08-16T03:13:03.319Z,57.41
2022-08-16T03:15:30.372Z,56.68
2022-08-16T03:17:59.134Z,56.79
2022-08-16T03:20:32.388Z,57.43
2022-08-16T03:23:01.766Z,56.31
2022-08-16T03:25:40.955Z,56.01
2022-08-16T03:28:11.899Z,55.76
2022-08-16T03:30:38.448Z,55.38
2022-08-16T03:33:07.449Z,55.09
2022-08-16T03:35:40.770Z,55.36
2022-08-16T03:38:33.539Z,54.49
2022-08-16T03:41:24.493Z,53.99
2022-08-16T03:43:55.679Z,54.45
2022-08-16T03:46:44.335Z,54.50
2022-08-16T03:49:13.936Z,53.91
2022-08-16T03:51:44.101Z,53.94
2022-08-16T03:54:18.005Z,54.00
2022-08-16T03:56:56.953Z,55.33
2022-08-16T03:59:29.729Z,54.23
2022-08-16T04:02:00.865Z,54.47
2022-08-16T04:04:32.705Z,55.01
2022-08-16T04:07:00.498Z,53.91
2022-08-16T04:09:30.198Z,54.73
2022-08-16T04:11:56.871Z,54.87
2022-08-16T04:14:32.904Z,54.86
2022-08-16T04:17:01.849Z,54.62
2022-08-16T04:19:36.011Z,55.25
2022-08-16T04:22:08.767Z,55.15
2022-08-16T04:24:43.533Z,53.72
2022-08-16T04:27:21.498Z,53.77
2022-08-16T04:29:52.326Z,54.23
2022-08-16T04:32:19.979Z,53.39
2022-08-16T04:34:49.163Z,52.71
2022-08-16T04:37:16.090Z,54.06
2022-08-16T04:39:55.804Z,53.89
2022-08-16T04:42:26.356Z,53.00
2022-08-16T04:44:58.365Z,53.50
2022-08-16T04:47:35.448Z,52.04
2022-08-16T04:50:10.088Z,52.32
2022-08-16T04:52:37.035Z,53.00
2022-08-16T04:55:06.223Z,52.61
2022-08-16T04:57:34.270Z,52.86
2022-08-16T05:00:30.918Z,53.54
2022-08-16T05:02:48.797Z,54.88
2022-08-16T05:05:23.101Z,54.55
2022-08-16T05:07:58.560Z,55.04
2022-08-16T05:10:28.130Z,53.92
2022-08-16T05:12:56.630Z,53.40
2022-08-16T05:15:23.395Z,53.85
2022-08-16T05:17:55.541Z,53.73
2022-08-16T05:20:39.535Z,53.78
2022-08-16T05:23:14.171Z,53.89
2022-08-16T05:25:48.482Z,54.36
2022-08-16T05:28:17.153Z,52.80
2022-08-16T05:30:50.251Z,52.01
2022-08-16T05:33:21.283Z,52.60
2022-08-16T05:35:54.617Z,52.20
2022-08-16T05:38:32.601Z,52.36
2022-08-16T05:41:09.387Z,53.45
2022-08-16T05:43:43.564Z,52.38
2022-08-16T05:46:29.630Z,51.44
2022-08-16T05:49:05.958Z,52.00
2022-08-16T05:51:39.888Z,51.44
2022-08-16T05:54:09.757Z,52.95
2022-08-16T05:56:39.362Z,51.89
2022-08-16T05:59:07.465Z,51.51
2022-08-16T06:01:38.926Z,50.53
2022-08-16T06:04:13.388Z,51.24
2022-08-16T06:06:57.404Z,51.49
2022-08-16T06:09:42.614Z,52.67
2022-08-16T06:12:11.880Z,49.93
2022-08-16T06:14:40.048Z,50.73
2022-08-16T06:17:08.124Z,51.20
2022-08-16T06:19:35.780Z,51.05
2022-08-16T06:22:11.187Z,50.57
2022-08-16T06:24:57.743Z,50.56
2022-08-16T06:27:24.834Z,50.04
2022-08-16T06:29:51.917Z,50.64
2022-08-16T06:32:27.398Z,51.14
2022-08-16T06:35:02.692Z,49.74
2022-08-16T06:37:37.140Z,49.58
2022-08-16T06:40:12.717Z,50.81
2022-08-16T06:42:47.493Z,51.07
2022-08-16T06:45:53.116Z,50.33
2022-08-16T06:48:32.478Z,48.13
2022-08-16T06:51:02.463Z,48.90
2022-08-16T06:53:29.809Z,49.03
2022-08-16T06:56:00.643Z,50.15
2022-08-16T06:58:39.975Z,49.86
2022-08-16T07:01:14.849Z,48.75
2022-08-16T07:03:55.618Z,48.97
2022-08-16T07:06:27.300Z,49.72
2022-08-16T07:08:58.578Z,48.36
2022-08-16T07:11:48.208Z,49.24
2022-08-16T07:14:27.110Z,52.73
2022-08-16T07:16:58.153Z,50.91
2022-08-16T07:20:02.444Z,49.73
2022-08-16T07:22:37.116Z,48.60
2022-08-16T07:24:59.679Z,49.05
2022-08-16T07:27:27.012Z,48.25
2022-08-16T07:29:55.578Z,49.29
2022-08-16T07:32:29.419Z,50.06
2022-08-16T07:34:58.243Z,49.28
2022-08-16T07:37:26.629Z,49.67
2022-08-16T07:40:11.499Z,48.15
2022-08-16T07:42:40.924Z,47.96
2022-08-16T07:45:10.371Z,48.40
2022-08-16T07:47:42.031Z,49.06
2022-08-16T07:50:55.606Z,48.69
2022-08-16T07:53:00.156Z,48.90
2022-08-16T07:55:29.067Z,49.99
2022-08-16T07:58:18.402Z,50.58
2022-08-16T08:01:01.754Z,51.35
2022-08-16T08:03:38.575Z,50.68
2022-08-16T08:06:10.389Z,50.22
2022-08-16T08:08:50.405Z,51.33
2022-08-16T08:11:21.272Z,50.99
2022-08-16T08:13:50.970Z,50.54
2022-08-16T08:16:19.934Z,49.60
2022-08-16T08:18:49.963Z,48.74
2022-08-16T08:21:27.267Z,49.56
2022-08-16T08:23:57.629Z,49.23
2022-08-16T08:26:25.224Z,50.81
2022-08-16T08:28:52.447Z,50.70
2022-08-16T08:31:21.171Z,51.86
2022-08-16T08:33:51.698Z,51.18
2022-08-16T08:36:33.024Z,48.92
2022-08-16T08:39:13.268Z,48.85
2022-08-16T08:41:42.460Z,48.19
2022-08-16T08:44:28.594Z,47.24
2022-08-16T08:47:00.211Z,48.08
2022-08-16T08:49:46.245Z,47.12
2022-08-16T08:52:34.656Z,47.75
2022-08-16T08:55:10.674Z,47.95
2022-08-16T08:57:40.655Z,47.97
2022-08-16T09:00:17.758Z,47.08
2022-08-16T09:02:52.104Z,45.31
2022-08-16T09:05:20.501Z,45.58
2022-08-16T09:08:00.467Z,43.78
2022-08-16T09:10:40.750Z,43.80
2022-08-16T09:13:08.115Z,42.02
2022-08-16T09:15:44.366Z,40.23
2022-08-16T09:18:26.362Z,40.55
2022-08-16T09:20:58.691Z,40.57
2022-08-16T09:23:28.405Z,38.76
2022-08-16T09:25:54.991Z,37.05
2022-08-16T09:29:14.503Z,34.24
2022-08-16T09:31:15.797Z,34.18
2022-08-16T09:33:43.395Z,32.58
2022-08-16T09:36:12.206Z,32.32
2022-08-16T09:38:59.663Z,30.60
2022-08-16T09:41:26.895Z,30.73
2022-08-16T09:43:59.405Z,31.69
2022-08-16T09:46:45.172Z,35.15
2022-08-16T09:49:14.690Z,35.03
2022-08-16T09:51:42.215Z,35.65
2022-08-16T09:54:16.731Z,33.34
2022-08-16T09:56:52.755Z,35.27
2022-08-16T09:59:21.050Z,34.63
2022-08-16T10:01:49.936Z,34.47
2022-08-16T10:04:30.346Z,34.92
2022-08-16T10:07:02.459Z,36.22
2022-08-16T10:09:44.897Z,34.28
2022-08-16T10:12:42.561Z,33.30
2022-08-16T10:15:15.609Z,32.89
2022-08-16T10:17:43.432Z,34.04
2022-08-16T10:20:11.430Z,30.78
2022-08-16T10:22:45.107Z,30.96
2022-08-16T10:25:11.706Z,30.72
2022-08-16T10:28:27.598Z,30.64
2022-08-16T10:30:45.022Z,28.54
2022-08-16T10:33:13.530Z,29.52
2022-08-16T10:35:46.995Z,29.61
2022-08-16T10:38:27.347Z,28.44
2022-08-16T10:40:54.673Z,28.98
2022-08-16T10:43:21.390Z,31.52
2022-08-16T10:46:00.228Z,29.37
2022-08-16T10:48:28.564Z,34.22
2022-08-16T10:50:58.749Z,34.34
2022-08-16T10:53:33.156Z,29.43
2022-08-16T10:56:02.540Z,29.37
2022-08-16T10:58:34.462Z,30.77
2022-08-16T11:01:24.949Z,29.84
2022-08-16T11:03:54.118Z,30.84
2022-08-16T11:06:26.834Z,26.41
2022-08-16T11:14:29.228Z,27.59
2022-08-16T11:17:10.786Z,26.34
2022-08-16T11:20:00.753Z,24.37
2022-08-16T11:22:47.038Z,24.44
2022-08-16T11:25:57.933Z,26.87
2022-08-16T11:28:01.084Z,27.55
2022-08-16T11:30:39.021Z,26.79
2022-08-16T11:33:06.773Z,25.99
2022-08-16T11:38:50.707Z,26.65
2022-08-16T11:41:09.097Z,24.98
2022-08-16T11:43:37.999Z,26.65
2022-08-16T11:46:44.731Z,26.60
2022-08-16T11:48:52.772Z,26.93
2022-08-16T11:51:19.371Z,26.33
2022-08-16T11:53:46.062Z,27.56
2022-08-16T11:56:14.834Z,26.37
2022-08-16T11:58:41.702Z,26.15
2022-08-16T12:01:08.270Z,26.53
2022-08-16T12:03:37.326Z,30.47
2022-08-16T12:06:11.190Z,26.68
2022-08-16T12:08:51.978Z,27.37
2022-08-16T12:11:18.935Z,25.01
2022-08-16T12:13:49.148Z,25.13
2022-08-16T12:16:20.479Z,26.70
2022-08-16T12:21:19.018Z,26.66
2022-08-16T12:23:46.341Z,26.63
2022-08-16T12:26:13.235Z,26.88
2022-08-16T12:28:54.793Z,24.08
2022-08-16T12:31:23.214Z,23.04
2022-08-16T12:33:50.779Z,23.66
2022-08-16T12:36:21.618Z,25.24
2022-08-16T12:38:48.926Z,26.64
2022-08-16T12:41:25.022Z,26.25
2022-08-16T12:43:52.539Z,25.59
2022-08-16T12:46:24.053Z,25.62
2022-08-16T12:48:59.910Z,23.72
2022-08-16T12:51:32.931Z,24.24
2022-08-16T12:54:17.656Z,23.66
2022-08-16T12:56:44.782Z,26.85
2022-08-16T12:59:13.931Z,26.27
2022-08-16T13:01:47.683Z,25.20
2022-08-16T13:04:21.346Z,26.42
2022-08-16T13:06:52.390Z,25.22
2022-08-16T13:09:29.054Z,25.44
2022-08-16T13:12:07.308Z,27.88
2022-08-16T13:14:39.497Z,27.41
2022-08-16T13:17:10.244Z,28.59
2022-08-16T13:20:06.084Z,28.88
2022-08-16T13:22:26.991Z,28.88
2022-08-16T13:24:54.604Z,29.39
2022-08-16T13:28:03.173Z,30.07
2022-08-16T13:30:22.138Z,27.72
2022-08-16T13:32:55.195Z,27.97
2022-08-16T13:35:22.682Z,28.31
2022-08-16T13:37:52.062Z,30.86
2022-08-16T13:40:21.191Z,29.14
2022-08-16T13:42:49.635Z,27.62
2022-08-16T13:45:17.054Z,27.20
2022-08-16T13:47:46.269Z,27.58
2022-08-16T13:50:15.791Z,28.71
2022-08-16T13:52:42.993Z,28.32
2022-08-16T13:55:17.754Z,26.65
2022-08-16T13:58:35.205Z,27.72
2022-08-16T14:00:32.028Z,27.25
2022-08-16T14:02:59.505Z,26.87
2022-08-16T14:05:27.215Z,26.58
2022-08-16T14:07:54.391Z,26.15
2022-08-16T14:10:21.707Z,28.50
2022-08-16T14:12:48.711Z,26.64
2022-08-16T14:15:16.322Z,28.04
2022-08-16T14:18:15.514Z,26.87
2022-08-16T14:20:30.433Z,25.55
2022-08-16T14:22:57.276Z,27.29
2022-08-16T14:25:24.546Z,26.39
2022-08-16T14:27:54.408Z,26.52
2022-08-16T14:30:22.268Z,28.05
2022-08-16T14:32:51.154Z,25.89
2022-08-16T14:35:36.811Z,27.70
2022-08-16T14:38:09.791Z,27.83
2022-08-16T14:40:40.300Z,27.79
2022-08-16T14:43:07.716Z,28.33
2022-08-16T14:45:35.427Z,29.67
2022-08-16T14:48:02.370Z,29.86
2022-08-16T14:50:31.365Z,30.78
2022-08-16T14:53:01.402Z,31.22
2022-08-16T14:55:31.201Z,30.88
2022-08-16T14:57:58.064Z,32.11
2022-08-16T15:00:27.177Z,30.98
2022-08-16T15:03:01.128Z,31.26
2022-08-16T15:08:01.031Z,32.98
2022-08-16T15:10:29.440Z,33.66
2022-08-16T15:12:58.927Z,33.35
2022-08-16T15:15:26.934Z,33.39
2022-08-16T15:17:56.311Z,32.97
2022-08-16T15:20:26.349Z,32.07
2022-08-16T15:22:53.396Z,31.28
2022-08-16T15:25:23.737Z,32.05
2022-08-16T15:27:56.175Z,30.38
2022-08-16T15:30:47.827Z,30.52
2022-08-16T15:33:12.307Z,31.70
2022-08-16T15:35:39.333Z,31.54
2022-08-16T15:38:09.235Z,31.05
2022-08-16T15:40:37.129Z,31.76
2022-08-16T15:43:23.585Z,31.53
2022-08-16T15:46:55.712Z,30.15
2022-08-16T15:49:05.585Z,30.68
2022-08-16T15:51:33.591Z,31.41
2022-08-16T15:54:29.266Z,31.17
2022-08-16T15:56:51.427Z,31.29
2022-08-16T15:59:19.307Z,32.57
2022-08-16T16:01:46.987Z,31.64
2022-08-16T16:04:14.982Z,30.98
2022-08-16T16:06:55.116Z,30.57
2022-08-16T16:09:26.265Z,31.73
2022-08-16T16:12:16.377Z,30.92
2022-08-16T16:14:51.403Z,32.42
2022-08-16T16:17:18.176Z,31.55
2022-08-16T16:19:44.801Z,32.67
2022-08-16T16:22:17.413Z,32.57
2022-08-16T16:24:47.194Z,32.92
2022-08-16T16:27:14.063Z,32.97
2022-08-16T16:29:42.712Z,33.10
2022-08-16T16:32:13.430Z,32.17
2022-08-16T16:34:43.137Z,33.20
2022-08-16T16:37:10.260Z,34.43
2022-08-16T16:39:37.545Z,34.58
2022-08-16T16:42:04.753Z,35.03
2022-08-16T16:44:31.938Z,34.77
2022-08-16T16:47:00.226Z,34.26
2022-08-16T16:49:26.898Z,34.50
2022-08-16T16:52:06.443Z,34.13
2022-08-16T16:54:35.662Z,33.93
2022-08-16T16:57:02.450Z,35.30
2022-08-16T16:59:29.131Z,34.95
2022-08-16T17:02:33.878Z,36.37
2022-08-16T17:04:45.559Z,38.12
2022-08-16T17:07:14.161Z,36.48
2022-08-16T17:09:41.474Z,39.76
2022-08-16T17:12:09.455Z,40.80
2022-08-16T17:14:38.557Z,42.43
2022-08-16T17:17:09.446Z,42.32
2022-08-16T17:19:40.815Z,42.22
2022-08-16T17:22:14.640Z,41.85
2022-08-16T17:24:45.390Z,41.60
2022-08-16T17:27:17.739Z,42.82
2022-08-16T17:29:46.225Z,43.50
2022-08-16T17:32:47.040Z,43.62
2022-08-16T17:35:03.029Z,44.81
2022-08-16T17:37:51.065Z,45.13
2022-08-16T17:40:38.059Z,45.91
2022-08-16T17:43:06.778Z,45.98
2022-08-16T17:45:33.303Z,45.73
2022-08-16T17:48:00.101Z,46.85
2022-08-16T17:50:28.989Z,46.39
2022-08-16T17:52:56.202Z,46.99
2022-08-16T17:55:24.937Z,47.03
2022-08-16T17:57:52.279Z,47.46
2022-08-16T18:00:20.621Z,48.36
2022-08-16T18:02:50.162Z,47.74
2022-08-16T18:05:17.410Z,47.41
2022-08-16T18:07:44.575Z,47.85
2022-08-16T18:10:12.257Z,50.19
2022-08-16T18:12:51.142Z,50.37
2022-08-16T18:15:23.363Z,50.75
2022-08-16T18:17:53.060Z,51.14
2022-08-16T18:20:39.911Z,51.27
2022-08-16T18:23:17.786Z,51.88
2022-08-16T18:25:48.378Z,51.75
2022-08-16T18:28:15.179Z,52.50
2022-08-16T18:30:42.513Z,53.06
2022-08-16T18:33:09.066Z,53.05
2022-08-16T18:35:36.006Z,51.86
2022-08-16T18:38:02.553Z,51.92
2022-08-16T18:40:29.461Z,52.29
2022-08-16T18:43:01.710Z,52.19
2022-08-16T18:45:35.299Z,53.86
2022-08-16T18:48:03.529Z,54.55
2022-08-16T18:50:30.093Z,54.38
2022-08-16T18:53:18.251Z,53.92
2022-08-16T18:55:46.156Z,53.89
2022-08-16T18:58:14.185Z,54.25
2022-08-16T19:00:45.774Z,55.45
2022-08-16T19:03:25.887Z,55.83
2022-08-16T19:05:56.982Z,57.00
2022-08-16T19:08:23.677Z,57.28
2022-08-16T19:10:51.071Z,55.90
2022-08-16T19:13:18.979Z,56.42
2022-08-16T19:15:46.674Z,58.44
2022-08-16T19:18:13.489Z,59.00
2022-08-16T19:20:40.660Z,56.92
2022-08-16T19:23:11.180Z,56.93
2022-08-16T19:25:46.989Z,57.34
2022-08-16T19:28:49.392Z,57.21
2022-08-16T19:31:05.328Z,57.33
2022-08-16T19:33:31.864Z,58.08
2022-08-16T19:35:58.505Z,58.05
2022-08-16T19:38:25.042Z,57.38
2022-08-16T19:40:51.739Z,57.24
2022-08-16T19:43:19.997Z,57.21
2022-08-16T19:45:46.596Z,57.74
2022-08-16T19:48:13.450Z,59.29
2022-08-16T19:50:40.102Z,59.38
2022-08-16T19:53:13.061Z,58.30
2022-08-16T19:55:47.337Z,57.59
2022-08-16T19:58:15.312Z,57.95
2022-08-16T20:00:45.648Z,57.53
2022-08-16T20:03:17.006Z,57.56
2022-08-16T20:05:43.862Z,59.24
2022-08-16T20:08:11.317Z,59.14
2022-08-16T20:10:38.354Z,57.96
2022-08-16T20:13:10.104Z,59.43
2022-08-16T20:15:40.883Z,60.77
2022-08-16T20:18:20.945Z,61.71
2022-08-16T20:20:51.642Z,61.91
2022-08-16T20:23:24.843Z,62.79
2022-08-16T20:25:53.268Z,60.99
2022-08-16T20:28:52.114Z,60.84
2022-08-16T20:31:06.360Z,60.34
2022-08-16T20:33:32.920Z,60.60
2022-08-16T20:35:59.435Z,60.64
2022-08-16T20:38:26.049Z,61.29
2022-08-16T20:40:52.677Z,62.69
2022-08-16T20:43:19.329Z,62.77
2022-08-16T20:45:46.494Z,61.39
2022-08-16T20:48:13.346Z,60.96
2022-08-16T20:50:40.090Z,62.22
2022-08-16T20:53:07.074Z,62.58
2022-08-16T20:55:34.779Z,63.11
2022-08-16T20:58:01.302Z,60.68
2022-08-16T21:00:29.097Z,62.01
2022-08-16T21:02:55.595Z,61.13
2022-08-16T21:05:27.775Z,60.48
2022-08-16T21:07:57.817Z,60.64
2022-08-16T21:10:24.603Z,59.67
2022-08-16T21:12:53.522Z,61.50
2022-08-16T21:15:20.626Z,61.89
2022-08-16T21:17:47.091Z,61.95
2022-08-16T21:20:13.657Z,63.58
2022-08-16T21:22:40.751Z,63.75
2022-08-16T21:25:09.919Z,63.21
2022-08-16T21:28:35.458Z,63.99
2022-08-16T21:30:27.965Z,64.52
2022-08-16T21:33:25.279Z,63.75
2022-08-16T21:35:53.619Z,64.28
2022-08-16T21:38:28.728Z,65.18
2022-08-16T21:40:57.300Z,65.23
2022-08-16T21:43:24.253Z,65.47
2022-08-16T21:45:51.969Z,65.74
2022-08-16T21:48:33.589Z,66.02
2022-08-16T21:51:01.367Z,66.13
2022-08-16T21:53:28.418Z,67.67
2022-08-16T21:55:56.364Z,67.09
2022-08-16T21:58:23.663Z,67.64
2022-08-16T22:00:50.548Z,67.14
2022-08-16T22:03:17.792Z,66.34
2022-08-16T22:05:45.279Z,67.42
2022-08-16T22:08:31.750Z,67.18
2022-08-16T22:11:06.529Z,67.40
2022-08-16T22:13:35.425Z,67.52
2022-08-16T22:16:06.834Z,66.76
2022-08-16T22:18:33.347Z,66.18
2022-08-16T22:20:59.886Z,66.61
2022-08-16T22:23:26.606Z,68.50
2022-08-16T22:25:53.833Z,68.44
2022-08-16T22:28:21.105Z,69.27
2022-08-16T22:30:48.551Z,69.85
2022-08-16T22:33:19.934Z,69.12
2022-08-16T22:35:48.172Z,68.76
2022-08-16T22:38:55.751Z,69.95
2022-08-16T22:41:04.163Z,70.67
2022-08-16T22:43:32.605Z,70.83
2022-08-16T22:45:59.310Z,69.32
2022-08-16T22:48:25.833Z,69.16
2022-08-16T22:50:52.913Z,70.44
2022-08-16T22:53:19.972Z,69.89
2022-08-16T22:55:46.976Z,69.53
2022-08-16T22:58:13.950Z,70.61
2022-08-16T23:00:40.567Z,71.00
2022-08-16T23:03:08.748Z,72.32
2022-08-16T23:05:37.453Z,71.72
2022-08-16T23:08:05.785Z,71.93
2022-08-16T23:10:32.311Z,71.82
2022-08-16T23:13:00.459Z,71.38
2022-08-16T23:15:28.490Z,71.07
2022-08-16T23:17:55.887Z,70.54
2022-08-16T23:20:24.249Z,70.57
2022-08-16T23:23:19.554Z,71.13
2022-08-16T23:25:40.519Z,71.44
2022-08-16T23:28:07.546Z,71.40
2022-08-16T23:30:38.884Z,71.43
2022-08-16T23:33:09.606Z,70.42
2022-08-16T23:35:45.567Z,71.72
2022-08-16T23:38:37.855Z,71.96
2022-08-16T23:41:00.570Z,72.09
2022-08-16T23:43:28.545Z,72.04
2022-08-16T23:45:56.822Z,72.01
2022-08-16T23:48:26.270Z,72.85
2022-08-16T23:50:53.909Z,74.07
2022-08-16T23:53:21.976Z,75.82
2022-08-16T23:55:53.111Z,75.47
2022-08-16T23:58:21.683Z,76.39
